Time;durP1;ratioP1;P1;durP2;ratioP2;P2;SDS_P1;SDS_P2;PMS_P1;PMS_P2;Temp;Humidity;BMP_temperature;BMP_pressure;BME280_temperature;BME280_humidity;BME280_pressure;Samples;Min_cycle;Max_cycle;Signal;HPM_P1;HPM_P2
2021/01/08 00:01:43;;;;;;;28.48;20.10;;;1.60;90.20;;;;;;5040067;28;20118;-89
2021/01/08 00:04:08;;;;;;;28.42;20.70;;;1.60;90.20;;;;;;5040282;28;20032;-86
2021/01/08 00:06:34;;;;;;;25.42;18.15;;;1.60;90.30;;;;;;5042283;28;20033;-84
2021/01/08 00:09:00;;;;;;;30.83;20.52;;;1.60;90.20;;;;;;5049480;28;21493;-83
2021/01/08 00:11:26;;;;;;;26.92;19.25;;;1.60;90.20;;;;;;5039728;28;20039;-80
2021/01/08 00:13:52;;;;;;;26.73;20.05;;;1.60;90.20;;;;;;5055006;28;20056;-81
2021/01/08 00:16:18;;;;;;;28.45;20.35;;;1.60;90.30;;;;;;5041106;28;20045;-83
2021/01/08 00:18:44;;;;;;;28.63;20.42;;;1.60;90.40;;;;;;5041974;28;20037;-85
2021/01/08 00:21:11;;;;;;;27.48;19.55;;;1.60;90.30;;;;;;5035756;28;20040;-84
2021/01/08 00:23:36;;;;;;;28.27;20.27;;;1.60;90.40;;;;;;5044171;28;20029;-84
2021/01/08 00:26:02;;;;;;;33.58;21.33;;;1.60;90.40;;;;;;5047147;28;20043;-82
2021/01/08 00:28:28;;;;;;;26.30;19.85;;;1.60;90.50;;;;;;5060911;28;20040;-83
2021/01/08 00:30:53;;;;;;;27.80;19.13;;;1.60;90.50;;;;;;5045270;28;20115;-84
2021/01/08 00:33:19;;;;;;;28.25;18.85;;;1.60;90.50;;;;;;5044798;28;20037;-82
2021/01/08 00:35:44;;;;;;;26.77;17.25;;;1.60;90.60;;;;;;5046219;28;20029;-84
2021/01/08 00:38:10;;;;;;;27.38;16.52;;;1.60;90.50;;;;;;5040465;28;20051;-84
2021/01/08 00:40:36;;;;;;;26.73;17.05;;;1.60;90.50;;;;;;5046127;28;20108;-85
2021/01/08 00:43:02;;;;;;;27.48;16.23;;;1.60;90.60;;;;;;5044887;28;20468;-85
2021/01/08 00:45:28;;;;;;;24.15;16.52;;;1.60;90.70;;;;;;5045053;28;20116;-85
2021/01/08 00:47:53;;;;;;;25.67;16.45;;;1.60;90.70;;;;;;5044691;28;20036;-83
2021/01/08 00:50:19;;;;;;;27.02;15.85;;;1.60;90.60;;;;;;5044831;28;20033;-83
2021/01/08 00:52:45;;;;;;;24.50;15.35;;;1.60;90.60;;;;;;5044356;28;20048;-86
2021/01/08 00:55:11;;;;;;;25.27;15.05;;;1.60;90.60;;;;;;5038549;28;20041;-84
2021/01/08 00:57:37;;;;;;;25.55;15.20;;;1.60;90.40;;;;;;5040270;28;20040;-87
2021/01/08 01:00:05;;;;;;;30.73;16.50;;;1.60;90.50;;;;;;5044382;28;20487;-87
2021/01/08 01:02:32;;;;;;;25.70;16.08;;;1.60;90.30;;;;;;5044131;28;20041;-85
2021/01/08 01:04:58;;;;;;;26.75;17.60;;;1.60;90.40;;;;;;5048220;28;20029;-83
2021/01/08 01:07:24;;;;;;;25.65;15.98;;;1.60;90.50;;;;;;5046681;28;20032;-83
2021/01/08 01:09:49;;;;;;;26.85;16.77;;;1.60;90.60;;;;;;5044075;28;20037;-84
2021/01/08 01:12:15;;;;;;;26.38;17.40;;;1.60;90.60;;;;;;5043893;28;20498;-84
2021/01/08 01:14:40;;;;;;;27.25;16.70;;;1.50;90.60;;;;;;5041085;28;20095;-83
2021/01/08 01:17:06;;;;;;;27.38;17.42;;;1.50;90.70;;;;;;5041874;28;20045;-85
2021/01/08 01:19:32;;;;;;;24.70;16.95;;;1.60;90.80;;;;;;5047020;28;20492;-85
2021/01/08 01:21:58;;;;;;;28.17;16.50;;;1.60;90.70;;;;;;5047028;28;20033;-83
2021/01/08 01:24:23;;;;;;;27.52;17.02;;;1.60;90.70;;;;;;5045667;28;20082;-86
2021/01/08 01:26:55;;;;;;;28.13;17.63;;;1.60;90.70;;;;;;5045976;28;20037;-84
2021/01/08 01:29:24;;;;;;;31.00;17.77;;;1.60;90.70;;;;;;5044042;28;20041;-83
2021/01/08 01:31:51;;;;;;;30.92;18.58;;;1.60;90.70;;;;;;5045881;28;20135;-83
2021/01/08 01:34:17;;;;;;;30.17;18.10;;;1.60;90.80;;;;;;5044121;28;20033;-84
2021/01/08 01:36:43;;;;;;;30.45;18.75;;;1.60;90.80;;;;;;5043397;28;20052;-84
2021/01/08 01:39:08;;;;;;;28.60;17.63;;;1.50;90.80;;;;;;5036490;28;20104;-87
2021/01/08 01:41:34;;;;;;;25.52;17.63;;;1.50;90.90;;;;;;5045241;28;20105;-85
2021/01/08 01:44:00;;;;;;;24.70;17.17;;;1.60;90.80;;;;;;5039701;28;20037;-83
2021/01/08 01:46:26;;;;;;;30.23;18.48;;;1.50;90.70;;;;;;5044590;28;20488;-86
2021/01/08 01:48:52;;;;;;;33.05;17.58;;;1.60;90.80;;;;;;5052980;28;20055;-86
2021/01/08 01:51:20;;;;;;;30.02;19.08;;;1.50;90.80;;;;;;5058477;28;20108;-84
2021/01/08 01:53:47;;;;;;;26.23;17.95;;;1.50;90.80;;;;;;5042560;28;20439;-85
2021/01/08 01:56:13;;;;;;;27.70;17.13;;;1.50;90.90;;;;;;5039229;28;20037;-86
2021/01/08 01:58:38;;;;;;;29.65;18.90;;;1.50;90.90;;;;;;5043449;28;20037;-78
2021/01/08 02:01:04;;;;;;;29.38;18.75;;;1.50;90.90;;;;;;5043902;28;20033;-82
2021/01/08 02:03:36;;;;;;;31.10;17.75;;;1.50;91.00;;;;;;5042364;28;20404;-82
2021/01/08 02:06:08;;;;;;;29.42;18.60;;;1.40;91.00;;;;;;5044580;28;20131;-84
2021/01/08 02:08:37;;;;;;;28.75;18.90;;;1.40;91.20;;;;;;5043182;28;20119;-84
2021/01/08 02:11:11;;;;;;;30.58;19.33;;;1.40;91.30;;;;;;5043523;28;20536;-84
2021/01/08 02:13:41;;;;;;;32.05;19.75;;;1.40;91.20;;;;;;5048128;28;20029;-84
2021/01/08 02:16:09;;;;;;;28.08;17.73;;;1.50;91.20;;;;;;5040928;28;20124;-84
2021/01/08 02:18:38;;;;;;;26.15;18.27;;;1.40;91.10;;;;;;5044032;28;21125;-84
2021/01/08 02:21:07;;;;;;;29.20;18.17;;;1.40;91.10;;;;;;5038110;28;20044;-84
2021/01/08 02:23:58;;;;;;;29.38;19.05;;;1.40;91.20;;;;;;5041730;28;20029;-82
2021/01/08 02:26:25;;;;;;;27.95;19.50;;;1.40;91.20;;;;;;5042285;28;20044;-84
2021/01/08 02:28:51;;;;;;;31.35;19.92;;;1.30;91.20;;;;;;5041033;28;20037;-84
2021/01/08 02:31:18;;;;;;;33.42;20.95;;;1.30;91.20;;;;;;5038894;28;20484;-84
2021/01/08 02:33:44;;;;;;;28.33;18.92;;;1.30;91.40;;;;;;5042633;28;20396;-82
2021/01/08 02:36:10;;;;;;;33.08;20.50;;;1.30;91.40;;;;;;5054159;28;20081;-84
2021/01/08 02:38:36;;;;;;;32.20;19.50;;;1.30;91.40;;;;;;5055140;28;20032;-85
2021/01/08 02:41:06;;;;;;;31.90;20.25;;;1.30;91.20;;;;;;5045795;28;20392;-84
2021/01/08 02:43:34;;;;;;;33.15;20.65;;;1.30;91.20;;;;;;5042720;28;20550;-84
2021/01/08 02:46:00;;;;;;;29.05;20.35;;;1.20;91.10;;;;;;5042125;28;20033;-81
2021/01/08 02:48:26;;;;;;;34.42;21.38;;;1.20;91.20;;;;;;5041347;28;20028;-84
2021/01/08 02:50:52;;;;;;;30.85;18.75;;;1.20;91.30;;;;;;5041390;28;20372;-84
2021/01/08 02:53:21;;;;;;;29.40;19.23;;;1.20;91.30;;;;;;5037010;28;20041;-84
2021/01/08 02:56:13;;;;;;;28.58;18.63;;;1.20;91.30;;;;;;5042425;28;20049;-85
2021/01/08 02:58:40;;;;;;;32.38;18.92;;;1.30;91.30;;;;;;5033211;28;20434;-85
2021/01/08 03:01:07;;;;;;;29.95;19.25;;;1.20;91.20;;;;;;5047848;28;20060;-86
2021/01/08 03:03:33;;;;;;;30.13;19.70;;;1.20;91.20;;;;;;5037593;28;20044;-85
2021/01/08 03:06:00;;;;;;;29.35;18.98;;;1.20;91.30;;;;;;5040076;28;20029;-85
2021/01/08 03:08:28;;;;;;;31.52;20.10;;;1.20;91.30;;;;;;5042449;28;20037;-86
2021/01/08 03:10:54;;;;;;;28.77;18.67;;;1.20;91.40;;;;;;5042081;28;20066;-84
2021/01/08 03:13:20;;;;;;;30.95;19.10;;;1.20;91.30;;;;;;5043653;28;20024;-86
2021/01/08 03:15:46;;;;;;;32.53;20.33;;;1.20;91.40;;;;;;5039022;28;20033;-83
2021/01/08 03:18:12;;;;;;;31.73;19.05;;;1.20;91.30;;;;;;5046340;28;20055;-85
2021/01/08 03:20:37;;;;;;;28.77;18.35;;;1.20;91.30;;;;;;5046191;28;20037;-84
2021/01/08 03:23:04;;;;;;;31.17;19.52;;;1.20;91.30;;;;;;5044380;28;20480;-82
2021/01/08 03:25:30;;;;;;;27.80;17.75;;;1.10;91.30;;;;;;5042661;28;20044;-85
2021/01/08 03:27:56;;;;;;;31.23;19.35;;;1.20;91.40;;;;;;5054957;28;20052;-85
2021/01/08 03:30:22;;;;;;;30.20;19.20;;;1.10;91.30;;;;;;5041791;28;20415;-85
2021/01/08 03:32:47;;;;;;;32.55;19.15;;;1.20;91.30;;;;;;5045366;28;20063;-85
2021/01/08 03:35:13;;;;;;;30.27;19.00;;;1.10;91.30;;;;;;5042213;28;20044;-82
2021/01/08 03:37:39;;;;;;;32.38;19.88;;;1.10;91.30;;;;;;5040446;28;20574;-84
2021/01/08 03:40:06;;;;;;;31.42;19.85;;;1.10;91.20;;;;;;5039878;28;20033;-84
2021/01/08 03:42:32;;;;;;;31.98;19.42;;;1.10;91.30;;;;;;5044292;28;20028;-86
2021/01/08 03:44:58;;;;;;;35.13;20.65;;;1.10;91.40;;;;;;5034642;28;20620;-85
2021/01/08 03:47:24;;;;;;;36.13;21.67;;;1.10;91.40;;;;;;5039721;28;20045;-86
2021/01/08 03:49:50;;;;;;;33.60;19.98;;;1.10;91.40;;;;;;5039367;28;20495;-85
2021/01/08 03:52:15;;;;;;;35.88;22.15;;;1.10;91.50;;;;;;5043569;28;20025;-84
2021/01/08 03:54:41;;;;;;;31.05;20.83;;;1.10;91.40;;;;;;5040995;28;20037;-85
2021/01/08 03:57:06;;;;;;;35.03;22.63;;;1.00;91.50;;;;;;5037868;28;20124;-82
2021/01/08 03:59:32;;;;;;;36.05;23.23;;;1.00;91.60;;;;;;5041259;28;20112;-84
2021/01/08 04:01:58;;;;;;;35.75;23.55;;;1.00;91.60;;;;;;5042520;28;20154;-85
2021/01/08 04:04:24;;;;;;;37.47;25.20;;;1.00;91.60;;;;;;5038242;28;20155;-85
2021/01/08 04:06:52;;;;;;;37.55;24.67;;;0.90;91.70;;;;;;5043420;28;20044;-86
2021/01/08 04:09:19;;;;;;;40.28;25.50;;;0.90;91.70;;;;;;5039965;28;20032;-82
2021/01/08 04:11:46;;;;;;;39.00;25.83;;;0.90;91.80;;;;;;5045836;28;20052;-85
2021/01/08 04:14:12;;;;;;;40.55;27.27;;;0.90;91.90;;;;;;5041057;28;20090;-86
2021/01/08 04:16:41;;;;;;;41.40;28.48;;;0.80;91.80;;;;;;5042583;28;20036;-86
2021/01/08 04:19:08;;;;;;;42.88;26.75;;;0.80;91.90;;;;;;5040632;28;20041;-86
2021/01/08 04:21:34;;;;;;;41.78;27.48;;;0.80;92.00;;;;;;5043327;28;20099;-86
2021/01/08 04:24:01;;;;;;;41.92;26.75;;;0.80;92.00;;;;;;5041282;28;20431;-86
2021/01/08 04:26:26;;;;;;;38.65;25.88;;;0.80;92.10;;;;;;5042035;28;20076;-86
2021/01/08 04:28:52;;;;;;;42.78;26.25;;;0.80;92.10;;;;;;5039090;28;20064;-89
2021/01/08 04:31:18;;;;;;;38.25;24.75;;;0.80;92.10;;;;;;5054645;28;20047;-83
2021/01/08 04:33:44;;;;;;;43.50;25.63;;;0.80;92.10;;;;;;5067085;28;20033;-81
2021/01/08 04:36:10;;;;;;;37.58;25.05;;;0.90;92.20;;;;;;5047557;28;20094;-87
2021/01/08 04:38:40;;;;;;;42.65;27.00;;;0.80;92.10;;;;;;5054802;28;20052;-84
2021/01/08 04:41:06;;;;;;;41.40;25.67;;;0.80;92.00;;;;;;5046338;28;20532;-88
2021/01/08 04:43:33;;;;;;;39.45;26.10;;;0.80;92.10;;;;;;5051523;28;20025;-91
2021/01/08 04:46:23;;;;;;;40.83;25.05;;;0.70;92.10;;;;;;5035640;28;20044;-88
2021/01/08 04:48:55;;;;;;;41.50;26.45;;;0.80;92.10;;;;;;5035757;28;20045;-90
2021/01/08 04:51:23;;;;;;;44.70;26.30;;;0.80;92.20;;;;;;5045183;28;20033;-83
2021/01/08 04:53:50;;;;;;;38.92;25.27;;;0.80;92.20;;;;;;5064844;28;20044;-81
2021/01/08 04:56:18;;;;;;;38.83;23.90;;;0.80;92.20;;;;;;5065196;28;20052;-81
2021/01/08 04:58:45;;;;;;;39.58;24.70;;;0.80;92.10;;;;;;5066758;28;20059;-88
2021/01/08 05:01:11;;;;;;;35.72;24.25;;;0.70;92.20;;;;;;5067488;28;20025;-82
2021/01/08 05:03:37;;;;;;;39.90;24.50;;;0.80;92.30;;;;;;5066705;28;20103;-83
2021/01/08 05:06:03;;;;;;;36.22;23.65;;;0.70;92.20;;;;;;5065224;28;20013;-81
2021/01/08 05:08:29;;;;;;;39.47;25.90;;;0.80;92.30;;;;;;5062918;28;20029;-81
2021/01/08 05:11:16;;;;;;;35.25;22.67;;;0.70;92.30;;;;;;5066337;28;20101;-89
2021/01/08 05:13:41;;;;;;;35.55;22.42;;;0.80;92.30;;;;;;5058749;28;20219;-90
2021/01/08 05:16:08;;;;;;;35.92;23.52;;;0.70;92.30;;;;;;5041807;28;20103;-83
2021/01/08 05:18:34;;;;;;;36.65;23.00;;;0.70;92.40;;;;;;5038431;28;20028;-86
2021/01/08 05:21:01;;;;;;;38.28;24.08;;;0.70;92.50;;;;;;5043058;28;20047;-91
2021/01/08 05:23:27;;;;;;;40.65;23.42;;;0.70;92.50;;;;;;5042931;28;20518;-91
2021/01/08 05:25:53;;;;;;;40.85;23.17;;;0.70;92.50;;;;;;5043394;28;20037;-89
2021/01/08 05:28:19;;;;;;;36.25;23.98;;;0.70;92.50;;;;;;5040778;28;20041;-82
2021/01/08 05:30:48;;;;;;;38.17;24.48;;;0.70;92.50;;;;;;5066304;28;20041;-90
2021/01/08 05:33:15;;;;;;;38.92;24.73;;;0.70;92.50;;;;;;5034592;28;20480;-86
2021/01/08 05:35:42;;;;;;;38.42;24.08;;;0.70;92.50;;;;;;5044163;28;20103;-89
2021/01/08 05:38:08;;;;;;;40.55;26.20;;;0.70;92.50;;;;;;5046208;28;20072;-89
2021/01/08 05:40:38;;;;;;;40.63;25.20;;;0.70;92.50;;;;;;5050837;28;20063;-84
2021/01/08 05:43:04;;;;;;;39.70;25.33;;;0.70;92.50;;;;;;5051008;28;20044;-86
2021/01/08 05:45:30;;;;;;;39.47;26.10;;;0.70;92.50;;;;;;5069473;28;20017;-81
2021/01/08 05:47:58;;;;;;;40.35;27.10;;;0.70;92.60;;;;;;5073470;28;20652;-90
2021/01/08 05:50:25;;;;;;;41.47;25.73;;;0.70;92.60;;;;;;5052345;28;20033;-85
2021/01/08 05:53:11;;;;;;;43.38;26.25;;;0.70;92.60;;;;;;5065643;28;20057;-82
2021/01/08 05:55:41;;;;;;;41.47;26.98;;;0.70;92.60;;;;;;5049845;28;20044;-90
2021/01/08 05:58:21;;;;;;;44.70;25.42;;;0.70;92.70;;;;;;5051376;28;20037;-88
2021/01/08 06:00:56;;;;;;;40.38;26.08;;;0.80;92.60;;;;;;5061904;28;20041;-86
2021/01/08 06:03:23;;;;;;;38.85;25.67;;;0.80;92.60;;;;;;5055883;28;20487;-90
2021/01/08 06:06:00;;;;;;;39.10;26.02;;;0.70;92.50;;;;;;5054118;28;20029;-91
2021/01/08 06:08:43;;;;;;;43.00;26.48;;;0.70;92.50;;;;;;5044916;28;20534;-88
2021/01/08 06:11:18;;;;;;;44.58;26.30;;;0.80;92.50;;;;;;5047765;28;20119;-84
2021/01/08 06:13:45;;;;;;;36.33;24.15;;;0.70;92.50;;;;;;5041118;28;20040;-90
2021/01/08 06:16:18;;;;;;;40.55;25.95;;;0.70;92.40;;;;;;5045065;28;20044;-91
2021/01/08 06:18:45;;;;;;;39.75;25.02;;;0.80;92.50;;;;;;5048398;28;20036;-90
2021/01/08 06:21:11;;;;;;;42.88;26.58;;;0.80;92.40;;;;;;5051373;28;20059;-89
2021/01/08 06:23:44;;;;;;;42.45;26.88;;;0.80;92.40;;;;;;5052908;28;21212;-82
2021/01/08 06:26:12;;;;;;;46.97;28.63;;;0.80;92.40;;;;;;5055529;28;20040;-92
2021/01/08 06:28:51;;;;;;;44.60;28.25;;;0.80;92.30;;;;;;5054553;28;20060;-85
2021/01/08 06:31:23;;;;;;;44.88;27.98;;;0.80;92.40;;;;;;5055777;28;20033;-82
2021/01/08 06:33:53;;;;;;;46.67;27.80;;;0.70;92.40;;;;;;5054155;28;20036;-93
2021/01/08 06:36:21;;;;;;;43.45;28.52;;;0.80;92.50;;;;;;5054749;28;20060;-87
2021/01/08 06:38:49;;;;;;;47.45;29.60;;;0.70;92.50;;;;;;5068386;28;20200;-81
2021/01/08 06:41:16;;;;;;;49.72;29.30;;;0.70;92.50;;;;;;5083260;28;20021;-80
2021/01/08 06:43:51;;;;;;;44.25;28.48;;;0.70;92.50;;;;;;5067294;28;20037;-86
2021/01/08 06:46:28;;;;;;;42.03;27.25;;;0.80;92.60;;;;;;5068306;28;20104;-83
2021/01/08 06:48:59;;;;;;;39.90;26.50;;;0.80;92.50;;;;;;5064273;28;20063;-82
2021/01/08 06:51:30;;;;;;;39.30;24.95;;;0.80;92.50;;;;;;5052215;28;20468;-79
2021/01/08 06:53:57;;;;;;;46.85;28.52;;;0.80;92.50;;;;;;5042663;28;20373;-75
2021/01/08 06:56:28;;;;;;;43.28;26.02;;;0.80;92.50;;;;;;5040638;28;20040;-72
2021/01/08 06:58:58;;;;;;;38.55;25.83;;;0.80;92.50;;;;;;5039625;28;20128;-73
2021/01/08 07:01:45;;;;;;;42.05;25.33;;;0.70;92.60;;;;;;5041923;28;20036;-73
2021/01/08 07:04:11;;;;;;;39.20;24.25;;;0.80;92.70;;;;;;5040934;28;20064;-76
2021/01/08 07:06:38;;;;;;;45.33;25.52;;;0.80;92.60;;;;;;5042017;28;20036;-74
2021/01/08 07:09:05;;;;;;;41.92;25.27;;;0.80;92.50;;;;;;5041712;28;20033;-73
2021/01/08 07:11:32;;;;;;;47.75;26.58;;;0.80;92.50;;;;;;5042379;28;20040;-74
2021/01/08 07:14:05;;;;;;;36.67;24.48;;;0.80;92.50;;;;;;5041753;28;20044;-76
2021/01/08 07:16:31;;;;;;;39.53;24.98;;;0.80;92.50;;;;;;5039267;28;20064;-76
2021/01/08 07:19:04;;;;;;;39.58;24.08;;;0.80;92.50;;;;;;5043807;28;20037;-75
2021/01/08 07:21:32;;;;;;;38.72;24.58;;;0.80;92.50;;;;;;5039441;28;20047;-73
2021/01/08 07:23:58;;;;;;;39.38;24.67;;;0.80;92.50;;;;;;5040683;28;20048;-76
2021/01/08 07:26:27;;;;;;;40.15;24.40;;;0.80;92.50;;;;;;5038522;28;20036;-73
2021/01/08 07:28:54;;;;;;;41.25;23.30;;;0.80;92.60;;;;;;5040286;28;20136;-73
2021/01/08 07:31:30;;;;;;;34.78;23.88;;;0.80;92.50;;;;;;5037947;28;20032;-79
2021/01/08 07:33:57;;;;;;;40.50;25.02;;;0.80;92.40;;;;;;5054226;28;20037;-73
2021/01/08 07:36:25;;;;;;;38.35;24.85;;;0.70;92.40;;;;;;5039355;28;20506;-72
2021/01/08 07:38:52;;;;;;;41.90;25.38;;;0.70;92.50;;;;;;5039110;28;20042;-73
2021/01/08 07:41:34;;;;;;;40.30;25.80;;;0.80;92.50;;;;;;5038956;28;20625;-72
2021/01/08 07:44:00;;;;;;;42.25;24.73;;;0.70;92.50;;;;;;5039194;28;20044;-73
2021/01/08 07:46:27;;;;;;;42.25;25.15;;;0.70;92.50;;;;;;5038437;28;20032;-79
2021/01/08 07:48:55;;;;;;;42.65;26.08;;;0.80;92.60;;;;;;5040863;28;20041;-73
2021/01/08 07:51:21;;;;;;;39.38;24.67;;;0.80;92.60;;;;;;5039788;28;20148;-76
2021/01/08 07:53:50;;;;;;;41.53;25.40;;;0.80;92.50;;;;;;5041301;28;20068;-76
2021/01/08 07:56:26;;;;;;;40.47;24.83;;;0.80;92.50;;;;;;5040823;28;20095;-72
2021/01/08 07:58:58;;;;;;;41.40;25.48;;;0.80;92.50;;;;;;5040661;28;20043;-73
2021/01/08 08:01:24;;;;;;;38.17;25.55;;;0.80;92.40;;;;;;5040986;28;20036;-77
2021/01/08 08:03:59;;;;;;;38.47;23.83;;;0.80;92.40;;;;;;5040320;28;20040;-72
2021/01/08 08:06:27;;;;;;;39.58;24.90;;;0.80;92.50;;;;;;5054039;28;20388;-73
2021/01/08 08:08:54;;;;;;;44.30;25.98;;;0.80;92.40;;;;;;5047914;28;20456;-75
2021/01/08 08:11:25;;;;;;;39.15;23.80;;;0.70;92.40;;;;;;5039263;28;20040;-73
2021/01/08 08:13:51;;;;;;;43.75;26.80;;;0.80;92.50;;;;;;5039281;28;20037;-74
2021/01/08 08:16:17;;;;;;;39.53;24.15;;;0.80;92.40;;;;;;5044749;28;20493;-72
2021/01/08 08:18:52;;;;;;;36.40;23.17;;;0.80;92.40;;;;;;5046172;28;20094;-76
2021/01/08 08:21:18;;;;;;;44.67;25.77;;;0.80;92.40;;;;;;5042718;28;20033;-73
2021/01/08 08:23:58;;;;;;;37.72;23.52;;;0.80;92.50;;;;;;5039152;28;20041;-75
2021/01/08 08:26:25;;;;;;;39.30;24.92;;;0.80;92.50;;;;;;5036440;28;20492;-76
2021/01/08 08:28:58;;;;;;;48.17;28.92;;;0.80;92.50;;;;;;5052581;28;20167;-72
2021/01/08 08:31:27;;;;;;;42.72;24.35;;;0.80;92.50;;;;;;5036192;28;20044;-73
2021/01/08 08:33:52;;;;;;;38.13;23.90;;;0.90;92.50;;;;;;5037263;28;20488;-77
2021/01/08 08:36:22;;;;;;;37.42;23.85;;;1.00;92.50;;;;;;5035264;28;20041;-75
2021/01/08 08:38:56;;;;;;;39.78;26.20;;;1.00;92.40;;;;;;5043895;28;20048;-74
2021/01/08 08:41:22;;;;;;;40.80;25.65;;;1.10;92.30;;;;;;5041003;28;20029;-73
2021/01/08 08:43:47;;;;;;;39.28;25.13;;;1.10;92.20;;;;;;5038950;28;20322;-75
2021/01/08 08:46:13;;;;;;;37.35;24.25;;;1.10;92.10;;;;;;5040008;28;20123;-72
2021/01/08 08:48:39;;;;;;;39.10;25.17;;;1.20;91.90;;;;;;5043940;28;20051;-72
2021/01/08 08:51:05;;;;;;;40.65;24.10;;;1.20;91.80;;;;;;5044157;28;20032;-73
2021/01/08 08:53:31;;;;;;;38.67;24.00;;;1.40;91.70;;;;;;5040594;28;20041;-72
2021/01/08 08:55:56;;;;;;;36.47;22.40;;;1.50;91.60;;;;;;5042312;28;20051;-73
2021/01/08 08:58:22;;;;;;;35.30;23.55;;;1.60;91.40;;;;;;5042542;28;20080;-74
2021/01/08 09:00:48;;;;;;;37.95;22.98;;;1.60;91.00;;;;;;5041820;28;20247;-73
2021/01/08 09:03:21;;;;;;;34.08;22.20;;;1.70;90.90;;;;;;5040904;28;20029;-72
2021/01/08 09:05:49;;;;;;;34.58;22.67;;;1.70;90.70;;;;;;5044906;28;20392;-72
2021/01/08 09:08:36;;;;;;;35.50;23.20;;;1.70;90.40;;;;;;5043031;28;20094;-74
2021/01/08 09:11:29;;;;;;;31.00;21.75;;;1.70;90.40;;;;;;5046813;28;20032;-70
2021/01/08 09:14:01;;;;;;;31.00;19.52;;;1.70;90.10;;;;;;5041218;28;20558;-70
2021/01/08 09:16:45;;;;;;;33.67;20.40;;;1.70;90.00;;;;;;5040618;28;20049;-69
2021/01/08 09:19:30;;;;;;;31.75;20.92;;;1.70;90.00;;;;;;5035533;28;20045;-71
2021/01/08 09:21:56;;;;;;;30.70;19.58;;;1.80;90.00;;;;;;5048272;28;20080;-70
2021/01/08 09:24:32;;;;;;;32.08;20.17;;;1.90;89.90;;;;;;5042183;28;20049;-69
2021/01/08 09:27:00;;;;;;;33.40;21.35;;;2.10;89.90;;;;;;5037751;28;20601;-71
2021/01/08 09:29:28;;;;;;;32.80;20.08;;;2.30;89.40;;;;;;5037638;28;20617;-73
2021/01/08 09:31:54;;;;;;;30.23;19.23;;;2.30;88.50;;;;;;5040254;28;20037;-71
2021/01/08 09:34:22;;;;;;;32.13;20.05;;;2.40;88.30;;;;;;5041824;28;20059;-71
2021/01/08 09:36:48;;;;;;;34.53;20.92;;;2.20;88.00;;;;;;5040510;28;20458;-71
2021/01/08 09:39:14;;;;;;;29.67;21.35;;;2.10;88.30;;;;;;5041151;28;20127;-72
2021/01/08 09:41:42;;;;;;;33.95;21.90;;;2.10;88.50;;;;;;5042526;28;20534;-73
2021/01/08 09:44:10;;;;;;;36.17;23.58;;;2.00;88.80;;;;;;5040732;28;20052;-70
2021/01/08 09:46:58;;;;;;;33.22;22.02;;;2.10;89.30;;;;;;5041274;28;20476;-71
2021/01/08 09:49:38;;;;;;;34.17;21.85;;;2.30;89.40;;;;;;5040473;28;20510;-71
2021/01/08 09:52:04;;;;;;;32.55;20.42;;;2.50;88.90;;;;;;5040113;28;20491;-70
2021/01/08 09:54:49;;;;;;;32.67;22.50;;;2.60;88.40;;;;;;5032507;28;20455;-72
2021/01/08 09:57:34;;;;;;;30.98;21.00;;;2.70;88.10;;;;;;5037760;28;20419;-72
2021/01/08 10:00:05;;;;;;;34.17;20.77;;;2.90;87.80;;;;;;5041304;28;20036;-72
2021/01/08 10:02:46;;;;;;;27.20;19.98;;;3.00;87.40;;;;;;5040960;28;20026;-71
2021/01/08 10:05:24;;;;;;;28.88;20.67;;;3.10;87.50;;;;;;5040713;28;20396;-72
2021/01/08 10:07:51;;;;;;;31.23;21.10;;;3.20;86.90;;;;;;5038651;28;20044;-73
2021/01/08 10:10:38;;;;;;;29.48;21.15;;;3.40;86.40;;;;;;5040964;28;20033;-71
2021/01/08 10:13:07;;;;;;;29.48;21.48;;;3.60;85.80;;;;;;5036799;28;20405;-72
2021/01/08 10:15:53;;;;;;;35.80;22.33;;;3.80;85.50;;;;;;5038885;28;20086;-73
2021/01/08 10:18:35;;;;;;;31.33;21.70;;;3.80;84.60;;;;;;5039744;28;20520;-71
2021/01/08 10:21:09;;;;;;;27.52;21.23;;;4.00;84.60;;;;;;5045738;28;20322;-72
2021/01/08 10:23:39;;;;;;;31.65;19.55;;;4.10;84.90;;;;;;5049024;28;20479;-70
2021/01/08 10:26:12;;;;;;;26.38;18.23;;;4.20;83.70;;;;;;5046950;28;20029;-70
2021/01/08 10:28:51;;;;;;;24.75;17.80;;;4.10;83.50;;;;;;5042361;28;20036;-72
2021/01/08 10:31:17;;;;;;;30.75;18.65;;;4.00;83.80;;;;;;5046120;28;20052;-73
2021/01/08 10:33:43;;;;;;;24.40;17.02;;;3.80;84.10;;;;;;5047563;28;20025;-71
2021/01/08 10:36:10;;;;;;;29.48;18.52;;;3.70;84.90;;;;;;5044597;28;20419;-70
2021/01/08 10:38:35;;;;;;;26.23;18.15;;;3.60;85.20;;;;;;5048036;28;20087;-70
2021/01/08 10:41:01;;;;;;;26.95;17.90;;;3.60;85.50;;;;;;5044126;28;20144;-71
2021/01/08 10:43:31;;;;;;;29.60;18.20;;;3.50;85.60;;;;;;5047038;28;20202;-71
2021/01/08 10:45:57;;;;;;;28.50;18.88;;;3.50;85.60;;;;;;5049309;28;20082;-71
2021/01/08 10:48:22;;;;;;;25.23;17.98;;;3.50;86.00;;;;;;5049714;28;20059;-71
2021/01/08 10:50:48;;;;;;;28.67;17.77;;;3.40;85.70;;;;;;5043026;28;20121;-74
2021/01/08 10:53:14;;;;;;;27.58;19.27;;;3.50;86.20;;;;;;5050231;28;20119;-75
2021/01/08 10:55:39;;;;;;;27.95;19.42;;;3.60;86.20;;;;;;5044942;28;20503;-72
2021/01/08 10:58:05;;;;;;;27.85;18.33;;;3.80;86.30;;;;;;5042937;28;20049;-72
2021/01/08 11:00:31;;;;;;;29.30;18.35;;;4.00;86.10;;;;;;5048212;28;20040;-71
2021/01/08 11:02:56;;;;;;;30.48;19.13;;;4.10;85.20;;;;;;5032897;28;20045;-71
2021/01/08 11:05:22;;;;;;;26.77;18.77;;;4.20;85.40;;;;;;5043984;28;20036;-75
2021/01/08 11:07:48;;;;;;;24.05;17.55;;;4.30;84.60;;;;;;5042842;28;20045;-73
2021/01/08 11:10:15;;;;;;;26.33;17.30;;;4.40;84.30;;;;;;5045543;28;20100;-71
2021/01/08 11:12:40;;;;;;;25.65;18.63;;;4.50;84.10;;;;;;5044848;28;20091;-70
2021/01/08 11:15:07;;;;;;;28.13;19.20;;;4.40;84.10;;;;;;5047233;28;20059;-71
2021/01/08 11:17:33;;;;;;;27.90;19.08;;;4.50;84.20;;;;;;5045891;28;20037;-72
2021/01/08 11:19:59;;;;;;;27.90;18.85;;;4.60;84.00;;;;;;5045926;28;20063;-71
2021/01/08 11:22:28;;;;;;;26.85;19.02;;;4.60;83.80;;;;;;5046725;28;20464;-72
2021/01/08 11:24:54;;;;;;;26.02;20.17;;;4.80;83.60;;;;;;5047392;28;20041;-72
2021/01/08 11:27:20;;;;;;;25.50;19.55;;;4.90;83.20;;;;;;5048766;28;20112;-71
2021/01/08 11:29:45;;;;;;;26.48;20.55;;;5.20;83.20;;;;;;5051590;28;20123;-71
2021/01/08 11:32:11;;;;;;;30.50;20.23;;;5.50;82.30;;;;;;5057711;28;20648;-71
2021/01/08 11:34:40;;;;;;;29.83;20.38;;;5.50;82.20;;;;;;5045376;28;20029;-70
2021/01/08 11:37:07;;;;;;;29.90;21.33;;;5.60;81.80;;;;;;5047624;28;20043;-71
2021/01/08 11:39:33;;;;;;;27.80;21.90;;;5.50;81.80;;;;;;5046516;28;20064;-70
2021/01/08 11:41:58;;;;;;;28.33;21.25;;;5.40;82.00;;;;;;5045408;28;20075;-71
2021/01/08 11:44:24;;;;;;;27.90;19.50;;;5.30;82.90;;;;;;5044054;28;20487;-70
2021/01/08 11:46:51;;;;;;;30.85;19.33;;;5.30;83.10;;;;;;5046493;28;20062;-72
2021/01/08 11:49:18;;;;;;;21.40;15.07;;;5.30;83.80;;;;;;5050880;28;20040;-72
2021/01/08 11:51:44;;;;;;;22.60;14.27;;;5.40;83.30;;;;;;5042013;28;20025;-71
2021/01/08 11:54:10;;;;;;;18.92;13.60;;;5.30;83.60;;;;;;5048121;28;20045;-71
2021/01/08 11:56:36;;;;;;;18.83;13.98;;;5.30;83.40;;;;;;5047322;28;20053;-71
2021/01/08 11:59:02;;;;;;;19.00;12.48;;;5.30;83.30;;;;;;5042466;28;20036;-71
2021/01/08 12:01:28;;;;;;;21.38;13.13;;;5.30;82.80;;;;;;5044293;28;20025;-71
2021/01/08 12:03:54;;;;;;;18.42;12.65;;;5.20;82.70;;;;;;5044429;28;20511;-71
2021/01/08 12:06:28;;;;;;;19.63;12.65;;;5.20;82.90;;;;;;5044403;28;20037;-72
2021/01/08 12:08:54;;;;;;;19.05;12.57;;;5.10;83.10;;;;;;5045024;28;20036;-71
2021/01/08 12:11:20;;;;;;;19.80;13.27;;;5.20;83.30;;;;;;5044743;28;20021;-72
2021/01/08 12:13:46;;;;;;;17.10;12.05;;;5.30;83.20;;;;;;5051892;28;20509;-72
2021/01/08 12:16:11;;;;;;;21.58;13.95;;;5.40;83.10;;;;;;5044789;28;20033;-71
2021/01/08 12:18:37;;;;;;;16.77;11.65;;;5.50;82.70;;;;;;5049781;28;20022;-72
2021/01/08 12:21:06;;;;;;;17.77;12.00;;;5.70;82.10;;;;;;5044148;28;20375;-71
2021/01/08 12:23:31;;;;;;;16.75;12.13;;;5.60;82.30;;;;;;5036471;28;20061;-72
2021/01/08 12:25:57;;;;;;;17.17;11.32;;;5.70;81.80;;;;;;5044993;28;20056;-72
2021/01/08 12:28:23;;;;;;;15.85;11.40;;;5.80;82.10;;;;;;5044633;28;20040;-70
2021/01/08 12:30:49;;;;;;;28.85;12.05;;;5.80;81.90;;;;;;5045037;28;20040;-72
2021/01/08 12:33:14;;;;;;;18.27;11.57;;;5.90;81.80;;;;;;5045348;28;20037;-76
2021/01/08 12:35:40;;;;;;;16.58;11.60;;;6.00;81.60;;;;;;5044251;28;20526;-72
2021/01/08 12:38:06;;;;;;;19.58;12.82;;;6.00;81.80;;;;;;5046669;28;20041;-71
2021/01/08 12:40:31;;;;;;;17.02;11.15;;;6.00;81.80;;;;;;5045950;28;20158;-75
2021/01/08 12:42:57;;;;;;;17.98;10.50;;;5.90;81.70;;;;;;5045371;28;20207;-71